Time;durP1;ratioP1;P1;durP2;ratioP2;P2;SDS_P1;SDS_P2;PMS_P1;PMS_P2;Temp;Humidity;BMP_temperature;BMP_pressure;BME280_temperature;BME280_humidity;BME280_pressure;Samples;Min_cycle;Max_cycle;Signal;HPM_P1;HPM_P2
2022/09/10 00:01:02;;;;;;;;;;;17.90;84.40;;;;;;5066329;28;19916;-66
2022/09/10 00:03:27;;;;;;;;;;;17.80;84.40;;;;;;5066924;28;19916;-65
2022/09/10 00:05:53;;;;;;;;;;;17.80;84.30;;;;;;5067101;28;19979;-66
2022/09/10 00:08:18;;;;;;;;;;;17.80;84.30;;;;;;5066798;28;19920;-65
2022/09/10 00:10:48;;;;;;;;;;;17.80;84.40;;;;;;5066704;28;19979;-66
2022/09/10 00:13:15;;;;;;;;;;;17.80;84.30;;;;;;5066254;28;20402;-65
2022/09/10 00:15:42;;;;;;;;;;;17.80;84.20;;;;;;5065546;28;19927;-65
2022/09/10 00:18:08;;;;;;;;;;;17.80;84.30;;;;;;5066286;28;20030;-65
2022/09/10 00:20:34;;;;;;;;;;;17.80;84.30;;;;;;5066049;28;19919;-65
2022/09/10 00:23:01;;;;;;;;;;;17.80;84.20;;;;;;5066459;28;20019;-66
2022/09/10 00:25:31;;;;;;;;;;;17.80;84.20;;;;;;5066215;28;19912;-66
2022/09/10 00:27:58;;;;;;;;;;;17.80;84.30;;;;;;5063538;28;20685;-65
2022/09/10 00:30:24;;;;;;;;;;;17.80;84.10;;;;;;5066200;28;19918;-65
2022/09/10 00:32:51;;;;;;;;;;;17.80;84.20;;;;;;5065715;28;20516;-66
2022/09/10 00:35:18;;;;;;;;;;;17.80;84.20;;;;;;5065682;28;20758;-65
2022/09/10 00:37:45;;;;;;;;;;;17.80;84.20;;;;;;5065905;28;19950;-66
2022/09/10 00:40:11;;;;;;;;;;;17.80;84.10;;;;;;5066092;28;19962;-66
2022/09/10 00:42:38;;;;;;;;;;;17.80;84.20;;;;;;5065913;28;19921;-65
2022/09/10 00:45:04;;;;;;;;;;;17.80;84.20;;;;;;5066338;28;20007;-65
2022/09/10 00:47:32;;;;;;;;;;;17.80;84.20;;;;;;5066075;28;20428;-66
2022/09/10 00:50:18;;;;;;;;;;;17.80;84.30;;;;;;5066258;28;19919;-66
2022/09/10 00:52:44;;;;;;;;;;;17.80;85.00;;;;;;5047134;28;19913;-65
2022/09/10 00:55:11;;;;;;;;;;;17.80;84.30;;;;;;5065358;28;19921;-65
2022/09/10 00:57:36;;;;;;;;;;;17.80;84.20;;;;;;5065794;28;20265;-66
2022/09/10 01:00:05;;;;;;;;;;;17.80;84.20;;;;;;5065674;28;19963;-66
2022/09/10 01:02:30;;;;;;;;;;;17.80;84.40;;;;;;5065694;28;19917;-66
2022/09/10 01:04:57;;;;;;;;;;;17.70;84.30;;;;;;5065609;28;19974;-65
2022/09/10 01:07:23;;;;;;;;;;;17.70;84.30;;;;;;5065250;28;19912;-66
2022/09/10 01:09:49;;;;;;;;;;;17.70;84.30;;;;;;5063763;28;19942;-66
2022/09/10 01:12:14;;;;;;;;;;;17.70;84.40;;;;;;5064951;28;20759;-65
2022/09/10 01:14:50;;;;;;;;;;;17.70;84.40;;;;;;5065436;28;19912;-66
2022/09/10 01:17:34;;;;;;;;;;;17.70;84.20;;;;;;5065729;28;20281;-66
2022/09/10 01:20:02;;;;;;;;;;;17.70;84.40;;;;;;5065777;28;20798;-65
2022/09/10 01:22:35;;;;;;;;;;;17.70;84.30;;;;;;5065466;28;19908;-66
2022/09/10 01:25:04;;;;;;;;;;;17.70;84.40;;;;;;5064467;28;20031;-65
2022/09/10 01:27:29;;;;;;;;;;;17.70;84.30;;;;;;5065225;28;19962;-66
2022/09/10 01:30:04;;;;;;;;;;;17.70;84.30;;;;;;5065516;28;20431;-66
2022/09/10 01:32:30;;;;;;;;;;;17.70;84.30;;;;;;5065277;28;19924;-66
2022/09/10 01:35:04;;;;;;;;;;;17.70;84.30;;;;;;5065542;28;19954;-66
2022/09/10 01:37:30;;;;;;;;;;;17.60;84.10;;;;;;5065634;28;20015;-65
2022/09/10 01:39:57;;;;;;;;;;;17.70;84.30;;;;;;5047038;28;20002;-66
2022/09/10 01:42:24;;;;;;;;;;;17.70;84.20;;;;;;5064688;28;19912;-66
2022/09/10 01:44:50;;;;;;;;;;;17.70;84.30;;;;;;5060178;28;19984;-66
2022/09/10 01:47:34;;;;;;;;;;;17.70;84.30;;;;;;5065500;28;19912;-65
2022/09/10 01:50:28;;;;;;;;;;;17.70;84.40;;;;;;5065327;28;19927;-65
2022/09/10 01:52:55;;;;;;;;;;;17.60;84.40;;;;;;5056330;28;19990;-66
2022/09/10 01:55:21;;;;;;;;;;;17.70;84.40;;;;;;5064974;28;20771;-66
2022/09/10 01:57:49;;;;;;;;;;;17.60;84.50;;;;;;5064905;28;19912;-65
2022/09/10 02:00:16;;;;;;;;;;;17.60;84.40;;;;;;5047215;28;19916;-66
2022/09/10 02:02:42;;;;;;;;;;;17.60;84.50;;;;;;5064291;28;19919;-65
2022/09/10 02:05:08;;;;;;;;;;;17.60;84.60;;;;;;5065156;28;20480;-66
2022/09/10 02:07:34;;;;;;;;;;;17.60;84.60;;;;;;5065289;28;19974;-66
2022/09/10 02:10:01;;;;;;;;;;;17.60;84.50;;;;;;5065213;28;20023;-65
2022/09/10 02:12:27;;;;;;;;;;;17.60;84.50;;;;;;5064344;28;19944;-66
2022/09/10 02:14:54;;;;;;;;;;;17.60;84.60;;;;;;5063477;28;20407;-66
2022/09/10 02:17:21;;;;;;;;;;;17.60;84.60;;;;;;5065211;28;19916;-65
2022/09/10 02:19:47;;;;;;;;;;;17.60;84.50;;;;;;5064710;28;20470;-65
2022/09/10 02:22:14;;;;;;;;;;;17.60;84.50;;;;;;5068187;28;19919;-66
2022/09/10 02:24:40;;;;;;;;;;;17.60;84.50;;;;;;5068544;28;20011;-66
2022/09/10 02:27:05;;;;;;;;;;;17.50;84.50;;;;;;5068757;28;20065;-66
2022/09/10 02:29:31;;;;;;;;;;;17.60;84.50;;;;;;5067737;28;19916;-66
2022/09/10 02:31:56;;;;;;;;;;;17.60;84.50;;;;;;5068227;28;19908;-65
2022/09/10 02:34:21;;;;;;;;;;;17.60;84.50;;;;;;5068591;28;19967;-66
2022/09/10 02:36:48;;;;;;;;;;;17.60;84.60;;;;;;5067664;28;19917;-66
2022/09/10 02:39:13;;;;;;;;;;;17.50;84.50;;;;;;5068397;28;20257;-66
2022/09/10 02:41:40;;;;;;;;;;;17.60;84.50;;;;;;5067955;28;19919;-66
2022/09/10 02:44:05;;;;;;;;;;;17.60;84.50;;;;;;5067931;28;19916;-66
2022/09/10 02:46:31;;;;;;;;;;;17.60;84.50;;;;;;5067983;28;19920;-65
2022/09/10 02:48:57;;;;;;;;;;;17.60;84.50;;;;;;5068651;28;19924;-66
2022/09/10 02:51:23;;;;;;;;;;;17.60;84.50;;;;;;5068078;28;19920;-66
2022/09/10 02:53:48;;;;;;;;;;;17.60;84.50;;;;;;5068307;28;20450;-66
2022/09/10 02:56:14;;;;;;;;;;;17.60;84.50;;;;;;5049821;28;20026;-66
2022/09/10 02:58:40;;;;;;;;;;;17.60;84.40;;;;;;5067758;28;19921;-66
2022/09/10 03:01:07;;;;;;;;;;;17.50;84.60;;;;;;5067444;28;20353;-66
2022/09/10 03:03:33;;;;;;;;;;;17.50;84.40;;;;;;5064156;28;19921;-66
2022/09/10 03:05:58;;;;;;;;;;;17.50;84.70;;;;;;5068048;28;20361;-66
2022/09/10 03:08:25;;;;;;;;;;;17.50;84.50;;;;;;5067888;28;19919;-65
2022/09/10 03:10:50;;;;;;;;;;;17.50;84.50;;;;;;5067204;28;19928;-66
2022/09/10 03:13:16;;;;;;;;;;;17.50;84.50;;;;;;5068108;28;19912;-66
2022/09/10 03:15:42;;;;;;;;;;;17.50;84.60;;;;;;5067436;28;20247;-66
2022/09/10 03:18:08;;;;;;;;;;;17.50;84.50;;;;;;5067312;28;19916;-66
2022/09/10 03:20:33;;;;;;;;;;;17.50;84.60;;;;;;5067022;28;19919;-66
2022/09/10 03:22:59;;;;;;;;;;;17.50;84.40;;;;;;5067691;28;19916;-65
2022/09/10 03:25:24;;;;;;;;;;;17.50;85.10;;;;;;5067114;28;19916;-65
2022/09/10 03:27:51;;;;;;;;;;;17.50;85.20;;;;;;5067496;28;19966;-66
2022/09/10 03:30:16;;;;;;;;;;;17.50;84.40;;;;;;5067155;28;19955;-66
2022/09/10 03:32:42;;;;;;;;;;;17.50;84.50;;;;;;5066237;28;19948;-66
2022/09/10 03:35:09;;;;;;;;;;;17.50;84.60;;;;;;5066625;28;19944;-66
2022/09/10 03:37:34;;;;;;;;;;;17.50;84.60;;;;;;5067592;28;19916;-66
2022/09/10 03:39:59;;;;;;;;;;;17.50;84.40;;;;;;5067705;28;19969;-66
2022/09/10 03:42:25;;;;;;;;;;;17.50;84.50;;;;;;5067161;28;20820;-65
2022/09/10 03:44:51;;;;;;;;;;;17.50;84.40;;;;;;5067265;28;19916;-66
2022/09/10 03:47:17;;;;;;;;;;;17.50;84.50;;;;;;5067067;28;20043;-66
2022/09/10 03:49:42;;;;;;;;;;;17.50;84.60;;;;;;5067097;28;19913;-65
2022/09/10 03:52:11;;;;;;;;;;;17.50;84.60;;;;;;5066012;28;19912;-66
2022/09/10 03:54:37;;;;;;;;;;;17.50;84.60;;;;;;5048234;28;19916;-65
2022/09/10 03:57:03;;;;;;;;;;;17.50;84.60;;;;;;5067266;28;19913;-66
2022/09/10 03:59:29;;;;;;;;;;;17.50;84.60;;;;;;5067042;28;19940;-65
2022/09/10 04:01:55;;;;;;;;;;;17.50;84.50;;;;;;5066623;28;19958;-65
2022/09/10 04:04:20;;;;;;;;;;;17.50;84.70;;;;;;5066849;28;20029;-65
2022/09/10 04:06:45;;;;;;;;;;;17.50;84.70;;;;;;5066720;28;19919;-65
2022/09/10 04:09:11;;;;;;;;;;;17.50;84.70;;;;;;5066502;28;19947;-65
2022/09/10 04:11:37;;;;;;;;;;;17.50;84.70;;;;;;5065763;28;19913;-65
2022/09/10 04:14:02;;;;;;;;;;;17.50;84.60;;;;;;5066751;28;20626;-65
2022/09/10 04:16:27;;;;;;;;;;;17.50;84.70;;;;;;5066808;28;19916;-66
2022/09/10 04:18:53;;;;;;;;;;;17.50;84.70;;;;;;5066770;28;20246;-65
2022/09/10 04:21:19;;;;;;;;;;;17.40;84.70;;;;;;5066708;28;19951;-65
2022/09/10 04:23:45;;;;;;;;;;;17.50;84.70;;;;;;5066701;28;19923;-65
2022/09/10 04:26:16;;;;;;;;;;;17.50;84.70;;;;;;5066536;28;19951;-66
2022/09/10 04:28:41;;;;;;;;;;;17.40;84.80;;;;;;5065493;28;20555;-65
2022/09/10 04:31:07;;;;;;;;;;;17.50;84.90;;;;;;5066344;28;19912;-66
2022/09/10 04:33:32;;;;;;;;;;;17.40;85.00;;;;;;5066100;28;19916;-66
2022/09/10 04:36:01;;;;;;;;;;;17.40;84.80;;;;;;5066561;28;19912;-65
2022/09/10 04:38:29;;;;;;;;;;;17.40;85.00;;;;;;5066361;28;19920;-65
2022/09/10 04:40:59;;;;;;;;;;;17.40;84.90;;;;;;5066088;28;19908;-66
2022/09/10 04:43:25;;;;;;;;;;;17.40;85.10;;;;;;5064715;28;19920;-65
2022/09/10 04:45:51;;;;;;;;;;;17.40;85.00;;;;;;5064531;28;19923;-65
2022/09/10 04:48:17;;;;;;;;;;;17.40;85.10;;;;;;5065961;28;20430;-66
2022/09/10 04:50:43;;;;;;;;;;;17.40;85.10;;;;;;5065203;28;19912;-65
2022/09/10 04:53:08;;;;;;;;;;;17.40;85.00;;;;;;5066182;28;19936;-66
2022/09/10 04:55:35;;;;;;;;;;;17.40;85.10;;;;;;5065955;28;20566;-65
2022/09/10 04:58:00;;;;;;;;;;;17.40;85.10;;;;;;5066089;28;19917;-65
2022/09/10 05:00:26;;;;;;;;;;;17.40;85.20;;;;;;5064852;28;20458;-65
2022/09/10 05:02:51;;;;;;;;;;;17.40;85.00;;;;;;5065359;28;20015;-65
2022/09/10 05:05:17;;;;;;;;;;;17.40;85.10;;;;;;5065925;28;20552;-65
2022/09/10 05:07:42;;;;;;;;;;;17.40;85.20;;;;;;5065949;28;19912;-65
2022/09/10 05:10:09;;;;;;;;;;;17.40;85.00;;;;;;5066137;28;20498;-65
2022/09/10 05:12:35;;;;;;;;;;;17.40;85.10;;;;;;5047864;28;20739;-65
2022/09/10 05:15:02;;;;;;;;;;;17.40;85.80;;;;;;5066063;28;20054;-65
2022/09/10 05:17:28;;;;;;;;;;;17.40;85.10;;;;;;5065333;28;20473;-65
2022/09/10 05:19:53;;;;;;;;;;;17.40;85.10;;;;;;5065480;28;19913;-66
2022/09/10 05:22:20;;;;;;;;;;;17.40;85.00;;;;;;5065267;28;19915;-65
2022/09/10 05:24:46;;;;;;;;;;;17.40;85.10;;;;;;5065423;28;19924;-65
2022/09/10 05:27:11;;;;;;;;;;;17.40;85.10;;;;;;5065715;28;19913;-65
2022/09/10 05:29:37;;;;;;;;;;;17.40;85.20;;;;;;5066069;28;19916;-65
2022/09/10 05:32:02;;;;;;;;;;;17.40;85.20;;;;;;5065599;28;19913;-66
2022/09/10 05:34:28;;;;;;;;;;;17.40;85.20;;;;;;5065442;28;20246;-65
2022/09/10 05:36:55;;;;;;;;;;;17.40;85.30;;;;;;5064928;28;20561;-65
2022/09/10 05:39:20;;;;;;;;;;;17.40;85.20;;;;;;5064596;28;19917;-65
2022/09/10 05:41:46;;;;;;;;;;;17.40;85.30;;;;;;5065002;28;19916;-65
2022/09/10 05:44:13;;;;;;;;;;;17.40;85.30;;;;;;5065338;28;19923;-65
2022/09/10 05:46:40;;;;;;;;;;;17.40;85.30;;;;;;5065339;28;20410;-65
2022/09/10 05:49:06;;;;;;;;;;;17.40;85.30;;;;;;5065124;28;19916;-66
2022/09/10 05:51:31;;;;;;;;;;;17.40;85.30;;;;;;5062529;28;19912;-66
2022/09/10 05:53:57;;;;;;;;;;;17.40;85.50;;;;;;5065210;28;19923;-65
2022/09/10 05:56:24;;;;;;;;;;;17.40;85.50;;;;;;5067762;28;19912;-65
2022/09/10 05:58:49;;;;;;;;;;;17.40;85.50;;;;;;5069268;28;19985;-66
2022/09/10 06:01:15;;;;;;;;;;;17.40;85.60;;;;;;5069114;28;20526;-66
2022/09/10 06:03:41;;;;;;;;;;;17.40;85.50;;;;;;5065554;28;19916;-66
2022/09/10 06:06:07;;;;;;;;;;;17.40;85.60;;;;;;5068534;28;19908;-66
2022/09/10 06:08:32;;;;;;;;;;;17.40;85.60;;;;;;5069146;28;19912;-66
2022/09/10 06:10:59;;;;;;;;;;;17.40;85.60;;;;;;5069134;28;19964;-65
2022/09/10 06:13:25;;;;;;;;;;;17.40;85.60;;;;;;5068578;28;19951;-65
2022/09/10 06:15:50;;;;;;;;;;;17.40;85.70;;;;;;5068717;28;19952;-65
2022/09/10 06:18:16;;;;;;;;;;;17.40;85.70;;;;;;5068909;28;19913;-65
2022/09/10 06:20:42;;;;;;;;;;;17.40;85.70;;;;;;5067824;28;19912;-65
2022/09/10 06:23:07;;;;;;;;;;;17.40;85.70;;;;;;5050020;28;19954;-66
2022/09/10 06:25:33;;;;;;;;;;;17.40;85.70;;;;;;5068310;28;19938;-66
2022/09/10 06:28:00;;;;;;;;;;;17.40;85.70;;;;;;5068125;28;19913;-65
2022/09/10 06:30:26;;;;;;;;;;;17.40;85.60;;;;;;5067649;28;19912;-65
2022/09/10 06:32:51;;;;;;;;;;;17.40;85.70;;;;;;5067991;28;20600;-65
2022/09/10 06:35:17;;;;;;;;;;;17.40;85.70;;;;;;5068646;28;19965;-66
2022/09/10 06:37:42;;;;;;;;;;;17.40;85.70;;;;;;5067593;28;19919;-65
2022/09/10 06:40:08;;;;;;;;;;;17.50;85.70;;;;;;5067690;28;19916;-66
2022/09/10 06:42:34;;;;;;;;;;;17.50;85.70;;;;;;5067304;28;20117;-65
2022/09/10 06:44:59;;;;;;;;;;;17.50;86.40;;;;;;5067570;28;20424;-65
2022/09/10 06:47:25;;;;;;;;;;;17.50;85.70;;;;;;5050013;28;20012;-65
2022/09/10 06:49:51;;;;;;;;;;;17.50;85.60;;;;;;5067013;28;19914;-65
2022/09/10 06:52:16;;;;;;;;;;;17.50;85.70;;;;;;5066938;28;19951;-66
2022/09/10 06:54:42;;;;;;;;;;;17.50;85.70;;;;;;5067466;28;19908;-65
2022/09/10 06:57:07;;;;;;;;;;;17.50;85.90;;;;;;5067989;28;20788;-66
2022/09/10 06:59:33;;;;;;;;;;;17.50;85.80;;;;;;5067036;28;19935;-65
2022/09/10 07:01:59;;;;;;;;;;;17.50;85.70;;;;;;5048980;28;19912;-65
2022/09/10 07:04:25;;;;;;;;;;;17.50;85.70;;;;;;5067324;28;20544;-65
2022/09/10 07:06:50;;;;;;;;;;;17.50;85.70;;;;;;5066148;28;19924;-65
2022/09/10 07:09:16;;;;;;;;;;;17.50;85.80;;;;;;5066510;28;20254;-65
2022/09/10 07:11:41;;;;;;;;;;;17.50;85.80;;;;;;5062470;28;19947;-66
2022/09/10 07:14:11;;;;;;;;;;;17.50;85.80;;;;;;5065462;28;19916;-65
2022/09/10 07:16:40;;;;;;;;;;;17.50;85.80;;;;;;5064370;28;19916;-65
2022/09/10 07:19:06;;;;;;;;;;;17.50;85.80;;;;;;5066041;28;20503;-65
2022/09/10 07:21:36;;;;;;;;;;;17.50;85.80;;;;;;5065754;28;19974;-65
2022/09/10 07:24:03;;;;;;;;;;;17.50;85.80;;;;;;5065804;28;20003;-66
2022/09/10 07:26:28;;;;;;;;;;;17.50;85.80;;;;;;5066474;28;20605;-65
2022/09/10 07:28:54;;;;;;;;;;;17.50;85.90;;;;;;5065689;28;19913;-65
2022/09/10 07:31:26;;;;;;;;;;;17.50;85.90;;;;;;5064818;28;19921;-65
2022/09/10 07:33:52;;;;;;;;;;;17.60;86.00;;;;;;5061580;28;20048;-66
2022/09/10 07:36:17;;;;;;;;;;;17.60;85.90;;;;;;5066292;28;20570;-65
2022/09/10 07:38:43;;;;;;;;;;;17.70;85.90;;;;;;5066505;28;19923;-66
2022/09/10 07:41:10;;;;;;;;;;;17.70;85.70;;;;;;5066414;28;19924;-65
2022/09/10 07:43:37;;;;;;;;;;;17.80;85.70;;;;;;5066672;28;19920;-66
2022/09/10 07:46:03;;;;;;;;;;;17.80;85.80;;;;;;5066237;28;19916;-65
2022/09/10 07:48:29;;;;;;;;;;;17.80;85.70;;;;;;5064971;28;19912;-65
2022/09/10 07:51:00;;;;;;;;;;;17.80;85.50;;;;;;5064371;28;19912;-65
2022/09/10 07:53:25;;;;;;;;;;;17.80;86.10;;;;;;5063496;28;20643;-65
2022/09/10 07:55:57;;;;;;;;;;;17.80;85.70;;;;;;5062477;28;19977;-65
2022/09/10 07:58:22;;;;;;;;;;;17.80;85.50;;;;;;5063642;28;19939;-66
2022/09/10 08:00:48;;;;;;;;;;;17.80;85.60;;;;;;5065573;28;20574;-65
2022/09/10 08:03:13;;;;;;;;;;;17.80;85.50;;;;;;5065480;28;19955;-65
2022/09/10 08:05:39;;;;;;;;;;;17.90;85.70;;;;;;5061725;28;19920;-65
2022/09/10 08:08:05;;;;;;;;;;;17.90;85.70;;;;;;5063550;28;19913;-65
2022/09/10 08:10:30;;;;;;;;;;;17.90;85.60;;;;;;5064263;28;19912;-65
2022/09/10 08:12:57;;;;;;;;;;;17.90;85.50;;;;;;5064158;28;19913;-65
2022/09/10 08:15:23;;;;;;;;;;;17.90;85.70;;;;;;5060645;28;20023;-65
2022/09/10 08:17:49;;;;;;;;;;;18.00;85.50;;;;;;5062588;28;20019;-65
2022/09/10 08:20:14;;;;;;;;;;;18.00;85.50;;;;;;5061962;28;19919;-65
2022/09/10 08:22:40;;;;;;;;;;;18.00;86.10;;;;;;5065634;28;19921;-65
2022/09/10 08:25:05;;;;;;;;;;;18.00;85.70;;;;;;5065824;28;20027;-65
2022/09/10 08:27:31;;;;;;;;;;;18.10;85.50;;;;;;5048728;28;19954;-65
2022/09/10 08:29:57;;;;;;;;;;;18.10;86.10;;;;;;5066292;28;19912;-65
2022/09/10 08:32:23;;;;;;;;;;;18.10;85.90;;;;;;5048357;28;20435;-65
2022/09/10 08:34:48;;;;;;;;;;;18.20;85.30;;;;;;5066573;28;19955;-65
2022/09/10 08:37:15;;;;;;;;;;;18.20;85.10;;;;;;5066280;28;19912;-65
2022/09/10 08:39:41;;;;;;;;;;;18.30;85.10;;;;;;5065170;28;19908;-65
2022/09/10 08:42:39;;;;;;;;;;;18.30;85.00;;;;;;5066200;28;20501;-65
2022/09/10 08:45:10;;;;;;;;;;;18.30;85.90;;;;;;5015799;28;19924;-65
2022/09/10 08:47:42;;;;;;;;;;;18.30;85.10;;;;;;5064999;28;19932;-65
2022/09/10 08:50:12;;;;;;;;;;;18.30;85.00;;;;;;5065823;28;20350;-65
2022/09/10 08:52:44;;;;;;;;;;;18.30;85.00;;;;;;5066054;28;19985;-65
2022/09/10 08:55:16;;;;;;;;;;;18.30;85.40;;;;;;5066304;28;19947;-65
2022/09/10 08:57:43;;;;;;;;;;;18.30;85.20;;;;;;5065789;28;19953;-65
2022/09/10 09:00:17;;;;;;;;;;;18.40;85.20;;;;;;5065622;28;19920;-66
2022/09/10 09:02:48;;;;;;;;;;;18.40;85.50;;;;;;5061261;28;20366;-65
2022/09/10 09:05:13;;;;;;;;;;;18.40;85.20;;;;;;5065649;28;19923;-66
2022/09/10 09:07:39;;;;;;;;;;;18.40;85.20;;;;;;5066032;28;19913;-65
2022/09/10 09:10:23;;;;;;;;;;;18.40;85.20;;;;;;5065647;28;19912;-65
2022/09/10 09:12:58;;;;;;;;;;;18.40;85.20;;;;;;5065415;28;19936;-65
2022/09/10 09:15:36;;;;;;;;;;;18.50;85.10;;;;;;5065456;28;19951;-66
2022/09/10 09:18:02;;;;;;;;;;;18.50;85.10;;;;;;5065048;28;19919;-65
2022/09/10 09:20:31;;;;;;;;;;;18.50;85.10;;;;;;5065440;28;19966;-65
2022/09/10 09:23:15;;;;;;;;;;;18.60;85.10;;;;;;5064990;28;19923;-65
2022/09/10 09:25:41;;;;;;;;;;;18.60;85.60;;;;;;5059976;28;19921;-65
2022/09/10 09:28:13;;;;;;;;;;;18.70;85.00;;;;;;5060183;28;19913;-65
2022/09/10 09:30:48;;;;;;;;;;;18.70;85.00;;;;;;5060661;28;19987;-66
2022/09/10 09:33:15;;;;;;;;;;;18.80;85.10;;;;;;5076345;28;19920;-65
2022/09/10 09:35:47;;;;;;;;;;;18.80;84.70;;;;;;5066274;28;20365;-65
2022/09/10 09:38:23;;;;;;;;;;;18.80;84.60;;;;;;5071985;28;19913;-65
2022/09/10 09:40:51;;;;;;;;;;;18.80;84.70;;;;;;5071844;28;19927;-65
2022/09/10 09:43:20;;;;;;;;;;;18.90;84.50;;;;;;5071870;28;20296;-65
2022/09/10 09:45:46;;;;;;;;;;;19.00;84.50;;;;;;5054372;28;20457;-65
2022/09/10 09:48:14;;;;;;;;;;;19.00;84.60;;;;;;5072071;28;19916;-65
2022/09/10 09:50:41;;;;;;;;;;;19.00;84.40;;;;;;5071446;28;19916;-65
2022/09/10 09:53:08;;;;;;;;;;;19.00;84.80;;;;;;5071129;28;19912;-65
2022/09/10 09:55:38;;;;;;;;;;;19.10;84.70;;;;;;5069461;28;19924;-65
2022/09/10 09:58:19;;;;;;;;;;;19.10;85.10;;;;;;5071587;28;19912;-66
2022/09/10 10:00:46;;;;;;;;;;;19.10;84.80;;;;;;5070898;28;20289;-65
2022/09/10 10:03:13;;;;;;;;;;;19.10;85.20;;;;;;5072311;28;19909;-65
2022/09/10 10:05:39;;;;;;;;;;;19.00;85.10;;;;;;5071026;28;19916;-65
2022/09/10 10:08:05;;;;;;;;;;;19.00;85.40;;;;;;5070656;28;20050;-65
2022/09/10 10:10:30;;;;;;;;;;;18.90;85.10;;;;;;5070078;28;20500;-65
2022/09/10 10:12:55;;;;;;;;;;;18.90;85.20;;;;;;5070673;28;19908;-65
2022/09/10 10:15:35;;;;;;;;;;;18.90;85.30;;;;;;5070895;28;19912;-65
2022/09/10 10:18:20;;;;;;;;;;;18.90;86.00;;;;;;5070951;28;19916;-65
2022/09/10 10:20:47;;;;;;;;;;;18.90;85.60;;;;;;5070510;28;19912;-66
2022/09/10 10:23:31;;;;;;;;;;;18.80;85.40;;;;;;5070743;28;20005;-66
2022/09/10 10:25:56;;;;;;;;;;;18.80;85.70;;;;;;5070066;28;19961;-66
2022/09/10 10:28:24;;;;;;;;;;;18.80;85.70;;;;;;5070137;28;20398;-66
2022/09/10 10:30:50;;;;;;;;;;;18.70;85.70;;;;;;5070456;28;19916;-66
2022/09/10 10:33:18;;;;;;;;;;;18.70;85.50;;;;;;5070745;28;19919;-66
2022/09/10 10:35:55;;;;;;;;;;;18.70;85.60;;;;;;5070878;28;19912;-66
2022/09/10 10:38:24;;;;;;;;;;;18.70;85.60;;;;;;5070835;28;19974;-66
2022/09/10 10:40:55;;;;;;;;;;;18.70;85.80;;;;;;5068220;28;20022;-66
2022/09/10 10:43:29;;;;;;;;;;;18.60;85.90;;;;;;5067296;28;20447;-66
2022/09/10 10:46:00;;;;;;;;;;;18.60;86.00;;;;;;5067106;28;19913;-66
2022/09/10 10:48:44;;;;;;;;;;;18.60;86.10;;;;;;5067428;28;19912;-66
2022/09/10 10:51:30;;;;;;;;;;;18.60;86.30;;;;;;5066510;28;19916;-66
2022/09/10 10:54:01;;;;;;;;;;;18.60;86.50;;;;;;5067431;28;19908;-65
2022/09/10 10:56:31;;;;;;;;;;;18.60;86.40;;;;;;5067307;28;19951;-66
2022/09/10 10:59:03;;;;;;;;;;;18.50;86.30;;;;;;5066019;28;19916;-66
2022/09/10 11:01:32;;;;;;;;;;;18.50;86.20;;;;;;5065348;28;19912;-66
2022/09/10 11:04:17;;;;;;;;;;;18.50;86.40;;;;;;5066878;28;19923;-66
2022/09/10 11:06:45;;;;;;;;;;;18.50;86.40;;;;;;5067444;28;20257;-66
2022/09/10 11:09:31;;;;;;;;;;;18.50;86.40;;;;;;5067537;28;19916;-66
2022/09/10 11:11:59;;;;;;;;;;;18.50;86.80;;;;;;5065579;28;19912;-66
2022/09/10 11:14:44;;;;;;;;;;;18.40;86.60;;;;;;5066963;28;19981;-66
2022/09/10 11:17:16;;;;;;;;;;;18.40;86.60;;;;;;5066945;28;19923;-66
2022/09/10 11:19:50;;;;;;;;;;;18.40;86.60;;;;;;5065923;28;20262;-67
2022/09/10 11:22:21;;;;;;;;;;;18.40;86.60;;;;;;5065737;28;19920;-66
2022/09/10 11:24:47;;;;;;;;;;;18.50;86.60;;;;;;5066875;28;20065;-66
2022/09/10 11:27:19;;;;;;;;;;;18.50;86.50;;;;;;5067143;28;19912;-66
2022/09/10 11:29:54;;;;;;;;;;;18.60;87.20;;;;;;5065926;28;19908;-66
2022/09/10 11:32:31;;;;;;;;;;;18.60;86.50;;;;;;5064798;28;19927;-65
2022/09/10 11:35:10;;;;;;;;;;;18.60;86.70;;;;;;5064813;28;19954;-66
2022/09/10 11:37:55;;;;;;;;;;;18.60;86.40;;;;;;5063396;28;19916;-65
2022/09/10 11:40:23;;;;;;;;;;;18.70;86.30;;;;;;5064722;28;19956;-66
2022/09/10 11:42:55;;;;;;;;;;;18.70;86.30;;;;;;5060803;28;20009;-66
2022/09/10 11:45:40;;;;;;;;;;;18.70;86.20;;;;;;5065709;28;19940;-65
2022/09/10 11:48:09;;;;;;;;;;;18.80;86.20;;;;;;5065686;28;19916;-66
2022/09/10 11:50:40;;;;;;;;;;;18.90;86.10;;;;;;5066065;28;19939;-65
2022/09/10 11:53:10;;;;;;;;;;;19.00;86.00;;;;;;5065312;28;19916;-66
2022/09/10 11:55:56;;;;;;;;;;;19.10;85.70;;;;;;5065681;28;20592;-65
2022/09/10 11:58:45;;;;;;;;;;;19.20;85.30;;;;;;5065782;28;19962;-65
2022/09/10 12:01:22;;;;;;;;;;;19.20;85.60;;;;;;5056334;28;19922;-65
2022/09/10 12:03:48;;;;;;;;;;;19.30;85.10;;;;;;5063836;28;20288;-65
2022/09/10 12:06:20;;;;;;;;;;;19.40;85.10;;;;;;5063533;28;19913;-66
2022/09/10 12:09:17;;;;;;;;;;;19.40;85.00;;;;;;5066001;28;19923;-65
2022/09/10 12:11:55;;;;;;;;;;;19.40;85.20;;;;;;5019868;28;19919;-65
2022/09/10 12:14:20;;;;;;;;;;;19.40;86.60;;;;;;5064024;28;19916;-65
2022/09/10 12:16:49;;;;;;;;;;;19.40;86.00;;;;;;5065369;28;19969;-65
2022/09/10 12:19:36;;;;;;;;;;;19.40;85.60;;;;;;5064972;28;19912;-66
2022/09/10 12:22:08;;;;;;;;;;;19.40;85.50;;;;;;5064596;28;20426;-65
2022/09/10 12:24:35;;;;;;;;;;;19.50;85.60;;;;;;5061849;28;19998;-65
2022/09/10 12:27:01;;;;;;;;;;;19.50;85.90;;;;;;5059547;28;19954;-65
2022/09/10 12:29:29;;;;;;;;;;;19.50;85.40;;;;;;5060289;28;19912;-65
2022/09/10 12:32:06;;;;;;;;;;;19.50;85.50;;;;;;5058575;28;20303;-65
2022/09/10 12:34:31;;;;;;;;;;;19.50;85.90;;;;;;5057943;28;19912;-65
2022/09/10 12:36:57;;;;;;;;;;;19.50;85.30;;;;;;5059442;28;19912;-65
2022/09/10 12:39:24;;;;;;;;;;;19.60;86.00;;;;;;5060293;28;19921;-65
2022/09/10 12:41:49;;;;;;;;;;;19.60;85.70;;;;;;5057556;28;20007;-65
2022/09/10 12:44:24;;;;;;;;;;;19.50;85.70;;;;;;5057870;28;19973;-65
2022/09/10 12:47:24;;;;;;;;;;;19.50;86.20;;;;;;5056891;28;20493;-65
2022/09/10 12:49:56;;;;;;;;;;;19.40;86.20;;;;;;4998209;28;20008;-65
2022/09/10 12:52:41;;;;;;;;;;;19.40;86.10;;;;;;5052756;28;19908;-65
2022/09/10 12:55:13;;;;;;;;;;;19.30;86.00;;;;;;5039695;28;19913;-65
2022/09/10 12:57:49;;;;;;;;;;;19.30;86.20;;;;;;5065386;28;19948;-65
2022/09/10 13:00:15;;;;;;;;;;;19.30;86.20;;;;;;5064310;28;19918;-65
2022/09/10 13:02:46;;;;;;;;;;;19.30;86.20;;;;;;5062017;28;19917;-65
2022/09/10 13:05:30;;;;;;;;;;;19.30;86.30;;;;;;5063626;28;19920;-65
2022/09/10 13:08:00;;;;;;;;;;;19.20;86.30;;;;;;5060712;28;19913;-65
2022/09/10 13:10:27;;;;;;;;;;;19.20;86.30;;;;;;5057444;28;19951;-66
2022/09/10 13:12:55;;;;;;;;;;;19.20;86.30;;;;;;5064676;28;19920;-66
2022/09/10 13:15:29;;;;;;;;;;;19.10;86.40;;;;;;5046219;28;19966;-66
2022/09/10 13:17:55;;;;;;;;;;;19.20;86.30;;;;;;5065350;28;19920;-65
2022/09/10 13:20:20;;;;;;;;;;;19.10;86.30;;;;;;5064526;28;20275;-65
2022/09/10 13:22:55;;;;;;;;;;;19.10;86.20;;;;;;5063137;28;19909;-65
2022/09/10 13:25:52;;;;;;;;;;;19.10;86.30;;;;;;5064500;28;19920;-65
2022/09/10 13:28:31;;;;;;;;;;;19.10;86.30;;;;;;5019227;28;19912;-65
2022/09/10 13:31:03;;;;;;;;;;;19.10;86.30;;;;;;5046142;28;19912;-65
2022/09/10 13:33:29;;;;;;;;;;;19.10;86.40;;;;;;5063907;28;20003;-65
2022/09/10 13:36:21;;;;;;;;;;;19.00;86.40;;;;;;5063537;28;20007;-65
2022/09/10 13:38:53;;;;;;;;;;;19.00;86.50;;;;;;5033380;28;19912;-65
2022/09/10 13:41:18;;;;;;;;;;;19.00;86.60;;;;;;5064204;28;19916;-66
2022/09/10 13:43:47;;;;;;;;;;;19.00;86.70;;;;;;5064915;28;20549;-65
2022/09/10 13:46:20;;;;;;;;;;;19.00;86.60;;;;;;5065100;28;20522;-65
2022/09/10 13:48:50;;;;;;;;;;;18.90;86.40;;;;;;5046785;28;19916;-65
2022/09/10 13:51:15;;;;;;;;;;;18.90;86.50;;;;;;5064820;28;19912;-65
2022/09/10 13:53:42;;;;;;;;;;;18.90;86.60;;;;;;5065199;28;19913;-65
2022/09/10 13:56:34;;;;;;;;;;;18.90;86.70;;;;;;5064513;28;19939;-66
2022/09/10 13:59:02;;;;;;;;;;;18.90;86.70;;;;;;5043153;28;19909;-65
2022/09/10 14:01:46;;;;;;;;;;;18.80;86.80;;;;;;5064844;28;19912;-65
2022/09/10 14:04:21;;;;;;;;;;;18.80;87.00;;;;;;5061765;28;19920;-65
2022/09/10 14:06:47;;;;;;;;;;;18.80;87.10;;;;;;5064802;28;19912;-65
2022/09/10 14:09:12;;;;;;;;;;;18.80;87.10;;;;;;5064785;28;19958;-65
2022/09/10 14:11:40;;;;;;;;;;;18.80;87.10;;;;;;5063729;28;19920;-65
2022/09/10 14:14:18;;;;;;;;;;;18.80;87.10;;;;;;5065002;28;20403;-65
2022/09/10 14:16:49;;;;;;;;;;;18.80;87.20;;;;;;5066695;28;19912;-65
2022/09/10 14:19:20;;;;;;;;;;;18.70;87.10;;;;;;5068445;28;19919;-65
2022/09/10 14:21:47;;;;;;;;;;;18.70;87.30;;;;;;5066122;28;19919;-65
2022/09/10 14:24:29;;;;;;;;;;;18.70;87.10;;;;;;5065949;28;20015;-65
2022/09/10 14:27:14;;;;;;;;;;;18.70;87.10;;;;;;5068033;28;19995;-65